sensor_id;sensor_type;location;lat;lon;timestamp;pressure;altitude;pressure_sealevel;temperature;humidity
20210;BME280;10264;53.178;5.840;2022-07-23T00:00:06;102635.22;;;14.22;51.22
20210;BME280;10264;53.178;5.840;2022-07-23T00:02:33;102650.31;;;14.17;51.21
20210;BME280;10264;53.178;5.840;2022-07-23T00:05:00;102665.81;;;14.34;51.20
20210;BME280;10264;53.178;5.840;2022-07-23T00:07:27;102656.03;;;14.40;51.19
20210;BME280;10264;53.178;5.840;2022-07-23T00:09:53;102668.25;;;14.46;51.17
20210;BME280;10264;53.178;5.840;2022-07-23T00:12:20;102670.91;;;14.46;51.15
20210;BME280;10264;53.178;5.840;2022-07-23T00:14:47;102673.38;;;14.54;51.15
20210;BME280;10264;53.178;5.840;2022-07-23T00:17:13;102673.13;;;14.64;51.14
20210;BME280;10264;53.178;5.840;2022-07-23T00:19:40;102678.63;;;14.55;51.14
20210;BME280;10264;53.178;5.840;2022-07-23T00:22:06;102675.41;;;14.43;51.15
20210;BME280;10264;53.178;5.840;2022-07-23T00:24:33;102675.53;;;14.36;51.15
20210;BME280;10264;53.178;5.840;2022-07-23T00:26:59;102664.94;;;14.36;51.16
20210;BME280;10264;53.178;5.840;2022-07-23T00:29:26;102660.00;;;14.18;51.19
20210;BME280;10264;53.178;5.840;2022-07-23T00:31:52;102665.59;;;14.05;51.21
20210;BME280;10264;53.178;5.840;2022-07-23T00:34:19;102663.94;;;13.99;51.21
20210;BME280;10264;53.178;5.840;2022-07-23T00:36:45;102662.28;;;13.92;51.21
20210;BME280;10264;53.178;5.840;2022-07-23T00:39:12;102671.25;;;13.85;51.22
20210;BME280;10264;53.178;5.840;2022-07-23T00:41:38;102680.97;;;13.83;51.24
20210;BME280;10264;53.178;5.840;2022-07-23T00:44:19;102630.06;;;13.72;51.21
20210;BME280;10264;53.178;5.840;2022-07-23T00:46:48;102638.19;;;13.63;51.21
20210;BME280;10264;53.178;5.840;2022-07-23T00:49:15;102647.06;;;13.60;51.19
20210;BME280;10264;53.178;5.840;2022-07-23T00:51:42;102652.31;;;13.62;51.19
20210;BME280;10264;53.178;5.840;2022-07-23T00:54:09;102655.19;;;13.49;51.17
20210;BME280;10264;53.178;5.840;2022-07-23T00:56:35;102657.88;;;13.46;51.16
20210;BME280;10264;53.178;5.840;2022-07-23T00:59:02;102660.53;;;13.46;51.15
20210;BME280;10264;53.178;5.840;2022-07-23T01:01:29;102659.72;;;13.41;51.13
20210;BME280;10264;53.178;5.840;2022-07-23T01:03:56;102651.72;;;13.46;51.13
20210;BME280;10264;53.178;5.840;2022-07-23T01:06:22;102643.84;;;13.43;51.09
20210;BME280;10264;53.178;5.840;2022-07-23T01:08:49;102661.53;;;13.39;51.08
20210;BME280;10264;53.178;5.840;2022-07-23T01:11:17;102657.88;;;13.46;51.07
20210;BME280;10264;53.178;5.840;2022-07-23T01:13:44;102659.66;;;13.44;51.07
20210;BME280;10264;53.178;5.840;2022-07-23T01:16:11;102659.03;;;13.30;51.06
20210;BME280;10264;53.178;5.840;2022-07-23T01:18:37;102666.97;;;13.30;51.04
20210;BME280;10264;53.178;5.840;2022-07-23T01:21:04;102670.56;;;13.26;51.02
20210;BME280;10264;53.178;5.840;2022-07-23T01:23:30;102671.44;;;13.25;51.02
20210;BME280;10264;53.178;5.840;2022-07-23T01:25:57;102671.63;;;13.15;51.00
20210;BME280;10264;53.178;5.840;2022-07-23T01:28:23;102676.19;;;13.02;50.99
20210;BME280;10264;53.178;5.840;2022-07-23T01:30:50;102689.47;;;12.97;50.98
20210;BME280;10264;53.178;5.840;2022-07-23T01:33:16;102694.91;;;12.90;50.97
20210;BME280;10264;53.178;5.840;2022-07-23T01:35:43;102684.41;;;12.85;50.95
20210;BME280;10264;53.178;5.840;2022-07-23T01:38:09;102686.19;;;12.82;50.94
20210;BME280;10264;53.178;5.840;2022-07-23T01:40:36;102680.06;;;12.80;50.93
20210;BME280;10264;53.178;5.840;2022-07-23T01:43:03;102680.84;;;12.86;50.92
20210;BME280;10264;53.178;5.840;2022-07-23T01:45:30;102689.63;;;12.90;50.90
20210;BME280;10264;53.178;5.840;2022-07-23T01:47:57;102680.91;;;12.83;50.89
20210;BME280;10264;53.178;5.840;2022-07-23T01:50:23;102683.53;;;12.83;50.88
20210;BME280;10264;53.178;5.840;2022-07-23T01:52:50;102692.34;;;12.81;50.87
20210;BME280;10264;53.178;5.840;2022-07-23T01:55:16;102690.50;;;12.89;50.87
20210;BME280;10264;53.178;5.840;2022-07-23T01:57:44;102691.31;;;12.94;50.88
20210;BME280;10264;53.178;5.840;2022-07-23T02:00:11;102723.81;;;12.96;50.84
20210;BME280;10264;53.178;5.840;2022-07-23T02:02:38;102721.97;;;13.01;50.84
20210;BME280;10264;53.178;5.840;2022-07-23T02:05:04;102724.53;;;13.07;50.84
20210;BME280;10264;53.178;5.840;2022-07-23T02:07:31;102716.34;;;13.28;50.83
20210;BME280;10264;53.178;5.840;2022-07-23T02:10:00;102723.16;;;13.41;50.82
20210;BME280;10264;53.178;5.840;2022-07-23T02:12:26;102720.22;;;13.58;50.80
20210;BME280;10264;53.178;5.840;2022-07-23T02:14:53;102720.97;;;13.66;50.79
20210;BME280;10264;53.178;5.840;2022-07-23T02:17:19;102713.03;;;13.66;50.79
20210;BME280;10264;53.178;5.840;2022-07-23T02:19:46;102705.22;;;13.59;50.77
20210;BME280;10264;53.178;5.840;2022-07-23T02:22:12;102708.97;;;13.47;50.76
20210;BME280;10264;53.178;5.840;2022-07-23T02:24:39;102688.81;;;13.41;50.76
20210;BME280;10264;53.178;5.840;2022-07-23T02:27:05;102698.72;;;13.27;50.75
20210;BME280;10264;53.178;5.840;2022-07-23T02:29:32;102694.41;;;13.22;50.74
20210;BME280;10264;53.178;5.840;2022-07-23T02:31:58;102694.44;;;13.20;50.74
20210;BME280;10264;53.178;5.840;2022-07-23T02:34:25;102690.03;;;13.19;50.74
20210;BME280;10264;53.178;5.840;2022-07-23T02:36:51;102692.91;;;13.04;50.73
20210;BME280;10264;53.178;5.840;2022-07-23T02:39:18;102682.44;;;12.99;50.73
20210;BME280;10264;53.178;5.840;2022-07-23T02:41:44;102684.34;;;12.90;50.71
20210;BME280;10264;53.178;5.840;2022-07-23T02:44:11;102685.22;;;12.89;50.71
20210;BME280;10264;53.178;5.840;2022-07-23T02:46:37;102682.69;;;12.81;50.70
20210;BME280;10264;53.178;5.840;2022-07-23T02:49:04;102680.09;;;12.77;50.70
20210;BME280;10264;53.178;5.840;2022-07-23T02:51:32;102688.97;;;12.71;50.66
20210;BME280;10264;53.178;5.840;2022-07-23T02:53:59;102679.28;;;12.72;50.65
20210;BME280;10264;53.178;5.840;2022-07-23T02:56:25;102676.72;;;12.68;50.65
20210;BME280;10264;53.178;5.840;2022-07-23T02:58:52;102690.84;;;12.64;50.64
20210;BME280;10264;53.178;5.840;2022-07-23T03:01:18;102685.59;;;12.61;50.64
20210;BME280;10264;53.178;5.840;2022-07-23T03:03:46;102681.19;;;12.63;50.62
20210;BME280;10264;53.178;5.840;2022-07-23T03:06:13;102679.28;;;12.73;50.61
20210;BME280;10264;53.178;5.840;2022-07-23T03:08:39;102682.75;;;12.77;50.61
20210;BME280;10264;53.178;5.840;2022-07-23T03:11:06;102690.72;;;12.74;50.60
20210;BME280;10264;53.178;5.840;2022-07-23T03:13:32;102678.31;;;12.79;50.60
20210;BME280;10264;53.178;5.840;2022-07-23T03:16:01;102687.22;;;12.72;50.58
20210;BME280;10264;53.178;5.840;2022-07-23T03:18:27;102683.75;;;12.70;50.59
20210;BME280;10264;53.178;5.840;2022-07-23T03:20:54;102679.34;;;12.68;50.58
20210;BME280;10264;53.178;5.840;2022-07-23T03:23:21;102670.53;;;12.70;50.56
20210;BME280;10264;53.178;5.840;2022-07-23T03:25:47;102669.59;;;12.75;50.55
20210;BME280;10264;53.178;5.840;2022-07-23T03:28:19;102653.94;;;12.61;50.54
20210;BME280;10264;53.178;5.840;2022-07-23T03:30:46;102632.78;;;12.64;50.53
20210;BME280;10264;53.178;5.840;2022-07-23T03:33:14;102495.50;;;12.67;50.54
20210;BME280;10264;53.178;5.840;2022-07-23T03:35:41;102485.09;;;12.58;50.52
20210;BME280;10264;53.178;5.840;2022-07-23T03:38:08;102492.19;;;12.56;50.52
20210;BME280;10264;53.178;5.840;2022-07-23T03:40:34;102481.66;;;12.53;50.51
20210;BME280;10264;53.178;5.840;2022-07-23T03:43:01;102483.50;;;12.48;50.50
20210;BME280;10264;53.178;5.840;2022-07-23T03:45:28;102478.31;;;12.45;50.50
20210;BME280;10264;53.178;5.840;2022-07-23T03:47:54;102481.63;;;12.56;50.50
20210;BME280;10264;53.178;5.840;2022-07-23T03:50:21;102472.88;;;12.53;50.49
20210;BME280;10264;53.178;5.840;2022-07-23T03:52:48;102471.13;;;12.53;50.49
20210;BME280;10264;53.178;5.840;2022-07-23T03:55:14;102472.78;;;12.60;50.48
20210;BME280;10264;53.178;5.840;2022-07-23T03:57:41;102467.44;;;12.63;50.48
20210;BME280;10264;53.178;5.840;2022-07-23T04:00:08;102466.31;;;12.77;50.47
20210;BME280;10264;53.178;5.840;2022-07-23T04:02:36;102470.53;;;12.87;50.47
20210;BME280;10264;53.178;5.840;2022-07-23T04:05:03;102467.78;;;12.93;50.46
20210;BME280;10264;53.178;5.840;2022-07-23T04:07:30;102466.72;;;13.03;50.47
20210;BME280;10264;53.178;5.840;2022-07-23T04:09:57;102462.97;;;13.15;50.46
20210;BME280;10264;53.178;5.840;2022-07-23T04:12:24;102461.16;;;13.18;50.46
20210;BME280;10264;53.178;5.840;2022-07-23T04:14:50;102464.81;;;13.11;50.44
20210;BME280;10264;53.178;5.840;2022-07-23T04:17:17;102469.13;;;13.15;50.44
20210;BME280;10264;53.178;5.840;2022-07-23T04:19:43;102475.31;;;13.14;50.43
20210;BME280;10264;53.178;5.840;2022-07-23T04:22:10;102462.09;;;13.16;50.44
20210;BME280;10264;53.178;5.840;2022-07-23T04:24:37;102463.97;;;13.09;50.43
20210;BME280;10264;53.178;5.840;2022-07-23T04:27:04;102462.88;;;13.19;50.45
20210;BME280;10264;53.178;5.840;2022-07-23T04:29:31;102462.97;;;13.16;50.44
20210;BME280;10264;53.178;5.840;2022-07-23T04:31:57;102460.91;;;13.30;50.43
20210;BME280;10264;53.178;5.840;2022-07-23T04:34:24;102457.38;;;13.31;50.43
20210;BME280;10264;53.178;5.840;2022-07-23T04:36:50;102453.94;;;13.28;50.43
20210;BME280;10264;53.178;5.840;2022-07-23T04:39:17;102449.28;;;13.39;50.44
20210;BME280;10264;53.178;5.840;2022-07-23T04:41:43;102443.66;;;13.56;50.44
20210;BME280;10264;53.178;5.840;2022-07-23T04:44:10;102442.38;;;13.72;50.45
20210;BME280;10264;53.178;5.840;2022-07-23T04:46:36;102426.59;;;13.70;50.45
20210;BME280;10264;53.178;5.840;2022-07-23T04:49:03;102419.47;;;13.72;50.44
20210;BME280;10264;53.178;5.840;2022-07-23T04:51:30;102417.56;;;13.79;50.44
20210;BME280;10264;53.178;5.840;2022-07-23T04:53:57;102422.81;;;13.80;50.45
20210;BME280;10264;53.178;5.840;2022-07-23T04:56:23;102411.31;;;13.81;50.45
20210;BME280;10264;53.178;5.840;2022-07-23T04:58:50;102418.31;;;13.85;50.44
20210;BME280;10264;53.178;5.840;2022-07-23T05:01:16;102418.88;;;13.98;50.45
20210;BME280;10264;53.178;5.840;2022-07-23T05:03:43;102409.16;;;14.00;50.44
20210;BME280;10264;53.178;5.840;2022-07-23T05:06:09;102414.34;;;14.03;50.46
20210;BME280;10264;53.178;5.840;2022-07-23T05:08:36;102409.63;;;14.16;50.48
20210;BME280;10264;53.178;5.840;2022-07-23T05:11:02;102409.44;;;14.23;50.46
20210;BME280;10264;53.178;5.840;2022-07-23T05:13:29;102417.06;;;14.35;50.47
20210;BME280;10264;53.178;5.840;2022-07-23T05:15:56;102410.81;;;14.39;50.46
20210;BME280;10264;53.178;5.840;2022-07-23T05:18:23;102423.81;;;14.49;50.46
20210;BME280;10264;53.178;5.840;2022-07-23T05:20:50;102428.28;;;14.47;50.47
20210;BME280;10264;53.178;5.840;2022-07-23T05:23:16;102429.06;;;14.50;50.48
20210;BME280;10264;53.178;5.840;2022-07-23T05:25:43;102428.03;;;14.56;50.46
20210;BME280;10264;53.178;5.840;2022-07-23T05:28:09;102424.00;;;15.37;50.52
20210;BME280;10264;53.178;5.840;2022-07-23T05:30:36;102407.28;;;17.42;50.64
20210;BME280;10264;53.178;5.840;2022-07-23T05:33:02;102412.88;;;19.63;50.73
20210;BME280;10264;53.178;5.840;2022-07-23T05:35:29;102473.78;;;21.31;50.81
20210;BME280;10264;53.178;5.840;2022-07-23T05:37:55;102414.44;;;23.07;51.11
20210;BME280;10264;53.178;5.840;2022-07-23T05:40:21;102492.16;;;23.79;53.47
20210;BME280;10264;53.178;5.840;2022-07-23T05:42:49;102143.69;;;24.57;100.00
20210;BME280;10264;53.178;5.840;2022-07-23T05:45:16;101778.75;;;25.15;100.00
20210;BME280;10264;53.178;5.840;2022-07-23T05:47:47;101872.94;;;25.71;100.00
20210;BME280;10264;53.178;5.840;2022-07-23T05:50:14;102033.56;;;26.27;100.00
20210;BME280;10264;53.178;5.840;2022-07-23T05:52:42;102102.75;;;27.03;100.00
20210;BME280;10264;53.178;5.840;2022-07-23T05:55:09;102163.56;;;27.18;100.00
20210;BME280;10264;53.178;5.840;2022-07-23T05:57:36;102175.84;;;27.43;100.00
20210;BME280;10264;53.178;5.840;2022-07-23T06:00:04;102196.13;;;27.90;100.00
20210;BME280;10264;53.178;5.840;2022-07-23T06:02:31;102208.69;;;28.42;100.00
20210;BME280;10264;53.178;5.840;2022-07-23T06:04:58;102219.09;;;28.47;100.00
20210;BME280;10264;53.178;5.840;2022-07-23T06:07:24;102221.25;;;28.53;100.00
20210;BME280;10264;53.178;5.840;2022-07-23T06:09:51;102225.03;;;28.41;100.00
20210;BME280;10264;53.178;5.840;2022-07-23T06:12:17;102230.34;;;28.52;100.00
20210;BME280;10264;53.178;5.840;2022-07-23T06:14:44;102240.63;;;29.57;100.00
20210;BME280;10264;53.178;5.840;2022-07-23T06:17:10;102230.66;;;28.58;100.00
20210;BME280;10264;53.178;5.840;2022-07-23T06:19:37;102243.63;;;29.64;100.00
20210;BME280;10264;53.178;5.840;2022-07-23T06:22:04;102252.44;;;29.56;100.00
20210;BME280;10264;53.178;5.840;2022-07-23T06:24:30;102250.88;;;30.02;100.00
20210;BME280;10264;53.178;5.840;2022-07-23T06:26:57;102248.59;;;29.87;100.00
20210;BME280;10264;53.178;5.840;2022-07-23T06:29:23;102255.34;;;30.40;100.00
20210;BME280;10264;53.178;5.840;2022-07-23T06:31:50;102253.84;;;31.19;100.00
20210;BME280;10264;53.178;5.840;2022-07-23T06:34:16;102241.00;;;31.56;100.00
20210;BME280;10264;53.178;5.840;2022-07-23T06:36:43;102247.16;;;32.02;100.00
20210;BME280;10264;53.178;5.840;2022-07-23T06:39:09;102245.88;;;32.40;100.00
20210;BME280;10264;53.178;5.840;2022-07-23T06:41:36;102241.09;;;32.08;100.00
20210;BME280;10264;53.178;5.840;2022-07-23T06:44:03;102240.09;;;30.29;100.00
20210;BME280;10264;53.178;5.840;2022-07-23T06:46:29;102239.28;;;28.73;100.00
20210;BME280;10264;53.178;5.840;2022-07-23T06:48:56;102244.06;;;28.60;100.00
20210;BME280;10264;53.178;5.840;2022-07-23T06:51:23;102244.41;;;27.20;100.00
20210;BME280;10264;53.178;5.840;2022-07-23T06:53:49;102234.25;;;27.23;100.00
20210;BME280;10264;53.178;5.840;2022-07-23T06:56:15;102246.44;;;27.50;100.00
20210;BME280;10264;53.178;5.840;2022-07-23T06:58:42;102247.97;;;27.31;100.00
20210;BME280;10264;53.178;5.840;2022-07-23T07:01:08;102238.47;;;26.38;100.00
20210;BME280;10264;53.178;5.840;2022-07-23T07:03:35;102241.50;;;25.29;100.00
20210;BME280;10264;53.178;5.840;2022-07-23T07:06:01;102240.53;;;24.45;100.00
20210;BME280;10264;53.178;5.840;2022-07-23T07:08:28;102236.31;;;24.28;100.00
20210;BME280;10264;53.178;5.840;2022-07-23T07:10:54;102249.47;;;23.80;100.00
20210;BME280;10264;53.178;5.840;2022-07-23T07:13:21;102254.41;;;23.20;100.00
20210;BME280;10264;53.178;5.840;2022-07-23T07:15:54;102254.19;;;22.68;100.00
20210;BME280;10264;53.178;5.840;2022-07-23T07:18:21;102249.00;;;22.79;100.00
20210;BME280;10264;53.178;5.840;2022-07-23T07:20:48;102248.94;;;22.81;100.00
20210;BME280;10264;53.178;5.840;2022-07-23T07:23:16;102248.81;;;23.23;100.00
20210;BME280;10264;53.178;5.840;2022-07-23T07:25:44;102255.63;;;23.56;100.00
20210;BME280;10264;53.178;5.840;2022-07-23T07:28:11;102259.28;;;23.40;100.00
20210;BME280;10264;53.178;5.840;2022-07-23T07:30:37;102255.31;;;22.50;100.00
20210;BME280;10264;53.178;5.840;2022-07-23T07:33:04;102249.38;;;22.45;100.00
20210;BME280;10264;53.178;5.840;2022-07-23T07:35:30;102252.97;;;21.71;100.00
20210;BME280;10264;53.178;5.840;2022-07-23T07:37:57;102259.94;;;21.74;100.00
20210;BME280;10264;53.178;5.840;2022-07-23T07:40:24;102273.00;;;22.24;100.00
20210;BME280;10264;53.178;5.840;2022-07-23T07:42:58;102275.22;;;22.32;100.00
20210;BME280;10264;53.178;5.840;2022-07-23T07:45:25;102268.63;;;21.93;100.00
20210;BME280;10264;53.178;5.840;2022-07-23T07:47:51;102273.03;;;21.94;100.00
20210;BME280;10264;53.178;5.840;2022-07-23T07:50:19;102270.53;;;21.91;100.00
20210;BME280;10264;53.178;5.840;2022-07-23T07:52:47;102282.28;;;21.73;100.00
20210;BME280;10264;53.178;5.840;2022-07-23T07:55:14;102278.28;;;21.35;100.00
20210;BME280;10264;53.178;5.840;2022-07-23T07:57:41;102270.34;;;21.02;100.00
20210;BME280;10264;53.178;5.840;2022-07-23T08:00:27;102266.97;;;20.67;100.00
20210;BME280;10264;53.178;5.840;2022-07-23T08:02:54;102267.59;;;20.55;100.00
20210;BME280;10264;53.178;5.840;2022-07-23T08:05:27;102272.28;;;20.34;100.00
20210;BME280;10264;53.178;5.840;2022-07-23T08:07:58;102269.59;;;20.51;100.00
20210;BME280;10264;53.178;5.840;2022-07-23T08:10:26;102279.34;;;20.68;100.00
20210;BME280;10264;53.178;5.840;2022-07-23T08:12:55;102268.28;;;20.42;100.00
20210;BME280;10264;53.178;5.840;2022-07-23T08:15:23;102288.22;;;20.35;100.00
20210;BME280;10264;53.178;5.840;2022-07-23T08:17:50;102270.91;;;20.25;100.00
20210;BME280;10264;53.178;5.840;2022-07-23T08:20:18;102256.31;;;20.15;100.00
20210;BME280;10264;53.178;5.840;2022-07-23T08:22:47;102251.94;;;20.14;100.00
20210;BME280;10264;53.178;5.840;2022-07-23T08:25:15;102253.97;;;20.26;100.00
20210;BME280;10264;53.178;5.840;2022-07-23T08:27:42;102237.00;;;20.27;100.00
20210;BME280;10264;53.178;5.840;2022-07-23T08:30:09;102250.22;;;20.13;100.00
20210;BME280;10264;53.178;5.840;2022-07-23T08:32:55;102255.22;;;20.19;100.00
20210;BME280;10264;53.178;5.840;2022-07-23T08:37:54;102245.25;;;20.23;100.00
20210;BME280;10264;53.178;5.840;2022-07-23T08:40:21;102270.78;;;19.77;100.00
20210;BME280;10264;53.178;5.840;2022-07-23T08:42:49;102208.59;;;19.92;100.00
20210;BME280;10264;53.178;5.840;2022-07-23T08:45:21;102205.16;;;19.90;100.00
20210;BME280;10264;53.178;5.840;2022-07-23T08:47:58;102207.25;;;20.00;100.00
20210;BME280;10264;53.178;5.840;2022-07-23T08:50:28;102214.25;;;19.86;100.00
20210;BME280;10264;53.178;5.840;2022-07-23T08:52:55;102208.88;;;20.20;100.00
20210;BME280;10264;53.178;5.840;2022-07-23T08:55:22;102219.50;;;20.55;100.00
20210;BME280;10264;53.178;5.840;2022-07-23T08:57:51;102226.59;;;20.71;100.00
20210;BME280;10264;53.178;5.840;2022-07-23T09:00:19;102226.25;;;20.93;100.00
20210;BME280;10264;53.178;5.840;2022-07-23T09:02:46;102231.13;;;21.18;100.00
20210;BME280;10264;53.178;5.840;2022-07-23T09:05:14;102237.22;;;20.88;100.00
20210;BME280;10264;53.178;5.840;2022-07-23T09:08:13;102230.75;;;21.08;100.00
20210;BME280;10264;53.178;5.840;2022-07-23T09:10:43;102238.66;;;21.57;100.00
20210;BME280;10264;53.178;5.840;2022-07-23T09:15:56;102283.41;;;24.97;100.00
20210;BME280;10264;53.178;5.840;2022-07-23T09:18:34;102318.59;;;27.05;100.00
20210;BME280;10264;53.178;5.840;2022-07-23T09:21:09;102332.59;;;27.75;100.00
20210;BME280;10264;53.178;5.840;2022-07-23T09:26:27;102317.47;;;25.09;100.00
20210;BME280;10264;53.178;5.840;2022-07-23T09:28:55;102312.53;;;25.15;100.00
20210;BME280;10264;53.178;5.840;2022-07-23T09:31:24;102308.06;;;23.61;100.00
20210;BME280;10264;53.178;5.840;2022-07-23T09:33:51;102291.81;;;22.08;100.00
20210;BME280;10264;53.178;5.840;2022-07-23T09:36:27;102268.75;;;21.76;100.00
20210;BME280;10264;53.178;5.840;2022-07-23T09:38:54;102268.31;;;21.68;100.00
20210;BME280;10264;53.178;5.840;2022-07-23T09:41:21;102269.38;;;21.65;100.00
20210;BME280;10264;53.178;5.840;2022-07-23T09:43:47;102277.81;;;22.33;100.00
20210;BME280;10264;53.178;5.840;2022-07-23T09:46:25;102307.81;;;25.06;100.00
20210;BME280;10264;53.178;5.840;2022-07-23T09:48:56;102354.53;;;28.25;100.00
20210;BME280;10264;53.178;5.840;2022-07-23T09:51:23;102354.56;;;29.46;100.00
20210;BME280;10264;53.178;5.840;2022-07-23T09:53:50;102344.53;;;28.46;100.00
20210;BME280;10264;53.178;5.840;2022-07-23T09:56:17;102339.81;;;26.87;100.00
20210;BME280;10264;53.178;5.840;2022-07-23T09:58:51;102318.00;;;25.27;100.00
20210;BME280;10264;53.178;5.840;2022-07-23T10:01:18;102309.41;;;23.68;100.00
20210;BME280;10264;53.178;5.840;2022-07-23T10:03:47;102314.63;;;24.74;100.00
20210;BME280;10264;53.178;5.840;2022-07-23T10:06:14;102319.56;;;24.42;100.00
20210;BME280;10264;53.178;5.840;2022-07-23T10:08:41;102331.34;;;25.52;100.00
20210;BME280;10264;53.178;5.840;2022-07-23T10:11:10;102363.22;;;28.28;100.00
20210;BME280;10264;53.178;5.840;2022-07-23T10:13:37;102371.72;;;30.71;100.00
20210;BME280;10264;53.178;5.840;2022-07-23T10:16:04;102383.81;;;30.87;100.00
20210;BME280;10264;53.178;5.840;2022-07-23T10:18:31;102365.63;;;29.73;100.00
20210;BME280;10264;53.178;5.840;2022-07-23T10:20:58;102357.91;;;28.89;100.00
20210;BME280;10264;53.178;5.840;2022-07-23T10:28:42;102333.34;;;25.37;100.00
20210;BME280;10264;53.178;5.840;2022-07-23T10:34:18;102340.75;;;25.83;100.00
20210;BME280;10264;53.178;5.840;2022-07-23T10:36:52;102340.44;;;25.51;100.00
20210;BME280;10264;53.178;5.840;2022-07-23T10:39:24;102348.31;;;26.47;100.00
20210;BME280;10264;53.178;5.840;2022-07-23T10:42:07;102353.69;;;26.94;100.00
20210;BME280;10264;53.178;5.840;2022-07-23T10:44:39;102362.00;;;29.14;100.00
20210;BME280;10264;53.178;5.840;2022-07-23T10:47:06;102377.31;;;30.41;100.00
20210;BME280;10264;53.178;5.840;2022-07-23T10:49:34;102376.13;;;30.72;100.00
20210;BME280;10264;53.178;5.840;2022-07-23T10:52:17;102387.31;;;32.06;100.00
20210;BME280;10264;53.178;5.840;2022-07-23T10:54:46;102381.28;;;32.81;100.00
20210;BME280;10264;53.178;5.840;2022-07-23T10:57:14;102400.50;;;34.06;97.40
20210;BME280;10264;53.178;5.840;2022-07-23T11:02:32;102399.22;;;33.52;100.00
20210;BME280;10264;53.178;5.840;2022-07-23T11:05:03;102397.19;;;33.62;100.00
20210;BME280;10264;53.178;5.840;2022-07-23T11:07:30;102375.84;;;31.22;100.00
20210;BME280;10264;53.178;5.840;2022-07-23T11:09:57;102380.00;;;31.44;100.00
20210;BME280;10264;53.178;5.840;2022-07-23T11:17:34;102378.75;;;32.19;100.00
20210;BME280;10264;53.178;5.840;2022-07-23T11:22:37;102389.31;;;32.83;100.00
20210;BME280;10264;53.178;5.840;2022-07-23T11:25:04;102381.16;;;32.04;100.00
20210;BME280;10264;53.178;5.840;2022-07-23T11:27:42;102374.66;;;31.52;100.00
20210;BME280;10264;53.178;5.840;2022-07-23T11:35:42;102361.06;;;30.22;100.00
20210;BME280;10264;53.178;5.840;2022-07-23T11:38:14;102356.91;;;29.20;100.00
20210;BME280;10264;53.178;5.840;2022-07-23T11:40:44;102357.53;;;30.02;100.00
20210;BME280;10264;53.178;5.840;2022-07-23T11:43:13;102372.59;;;31.09;100.00
20210;BME280;10264;53.178;5.840;2022-07-23T11:45:44;102365.50;;;30.04;100.00
20210;BME280;10264;53.178;5.840;2022-07-23T11:48:19;102345.44;;;27.51;100.00
20210;BME280;10264;53.178;5.840;2022-07-23T11:50:46;102343.94;;;28.42;100.00
20210;BME280;10264;53.178;5.840;2022-07-23T11:53:13;102350.34;;;28.21;100.00
20210;BME280;10264;53.178;5.840;2022-07-23T11:55:39;102362.59;;;29.27;100.00
20210;BME280;10264;53.178;5.840;2022-07-23T11:58:05;102349.28;;;28.33;100.00
20210;BME280;10264;53.178;5.840;2022-07-23T12:00:33;102353.06;;;28.92;100.00
20210;BME280;10264;53.178;5.840;2022-07-23T12:03:06;102350.41;;;28.30;100.00
20210;BME280;10264;53.178;5.840;2022-07-23T12:05:35;102346.03;;;27.54;100.00
20210;BME280;10264;53.178;5.840;2022-07-23T12:08:04;102327.59;;;26.02;100.00
20210;BME280;10264;53.178;5.840;2022-07-23T12:10:36;102322.63;;;25.25;100.00
20210;BME280;10264;53.178;5.840;2022-07-23T12:13:15;102316.09;;;25.40;100.00
20210;BME280;10264;53.178;5.840;2022-07-23T12:15:44;102313.13;;;23.93;100.00
20210;BME280;10264;53.178;5.840;2022-07-23T12:18:13;102312.47;;;24.41;100.00
20210;BME280;10264;53.178;5.840;2022-07-23T12:20:42;102323.56;;;24.49;100.00
20210;BME280;10264;53.178;5.840;2022-07-23T12:23:10;102310.41;;;24.32;100.00
20210;BME280;10264;53.178;5.840;2022-07-23T12:25:44;102312.91;;;24.08;100.00
20210;BME280;10264;53.178;5.840;2022-07-23T12:33:10;102319.94;;;23.84;100.00
20210;BME280;10264;53.178;5.840;2022-07-23T12:35:39;102322.03;;;24.96;100.00
20210;BME280;10264;53.178;5.840;2022-07-23T12:38:11;102325.69;;;25.07;100.00
20210;BME280;10264;53.178;5.840;2022-07-23T12:40:46;102324.97;;;25.29;100.00
20210;BME280;10264;53.178;5.840;2022-07-23T12:43:30;102331.69;;;25.84;100.00
20210;BME280;10264;53.178;5.840;2022-07-23T12:46:09;102318.72;;;25.89;100.00
20210;BME280;10264;53.178;5.840;2022-07-23T12:48:39;102316.22;;;25.38;100.00
20210;BME280;10264;53.178;5.840;2022-07-23T12:51:28;102329.69;;;25.75;100.00
20210;BME280;10264;53.178;5.840;2022-07-23T12:53:58;102341.94;;;26.37;100.00
20210;BME280;10264;53.178;5.840;2022-07-23T12:56:31;102328.22;;;25.82;100.00
20210;BME280;10264;53.178;5.840;2022-07-23T13:01:36;102315.41;;;24.89;100.00
20210;BME280;10264;53.178;5.840;2022-07-23T13:06:48;102321.69;;;25.49;100.00
20210;BME280;10264;53.178;5.840;2022-07-23T13:09:26;102325.91;;;25.41;100.00
20210;BME280;10264;53.178;5.840;2022-07-23T13:11:58;102321.31;;;24.94;100.00
20210;BME280;10264;53.178;5.840;2022-07-23T13:14:26;102306.50;;;24.11;100.00
20210;BME280;10264;53.178;5.840;2022-07-23T13:16:53;102309.00;;;24.90;100.00
20210;BME280;10264;53.178;5.840;2022-07-23T13:19:22;102313.44;;;24.53;100.00
20210;BME280;10264;53.178;5.840;2022-07-23T13:21:51;102306.97;;;24.30;100.00
20210;BME280;10264;53.178;5.840;2022-07-23T13:24:18;102309.34;;;23.95;100.00
20210;BME280;10264;53.178;5.840;2022-07-23T13:26:45;102308.06;;;24.40;100.00
20210;BME280;10264;53.178;5.840;2022-07-23T13:29:13;102314.63;;;23.97;100.00
20210;BME280;10264;53.178;5.840;2022-07-23T13:31:39;102301.13;;;24.11;100.00